createdAt,value
2022-09-27T00:01:13.064Z,98141.47
2022-09-27T00:03:41.150Z,98134.16
2022-09-27T00:06:14.952Z,98133.75
2022-09-27T00:08:43.626Z,98129.16
2022-09-27T00:11:18.768Z,98131.50
2022-09-27T00:13:46.940Z,98092.28
2022-09-27T00:16:15.134Z,98120.88
2022-09-27T00:18:43.587Z,98133.94
2022-09-27T00:21:14.854Z,98108.84
2022-09-27T00:23:43.335Z,98094.63
2022-09-27T00:26:14.231Z,98127.31
2022-09-27T00:28:42.756Z,98126.88
2022-09-27T00:31:21.928Z,98051.28
2022-09-27T00:33:50.857Z,98111.44
2022-09-27T00:36:21.955Z,98117.13
2022-09-27T00:38:50.647Z,98084.63
2022-09-27T00:41:21.478Z,98117.63
2022-09-27T00:43:52.030Z,98117.63
2022-09-27T00:46:24.503Z,98116.19
2022-09-27T00:49:04.900Z,98111.66
2022-09-27T00:51:36.275Z,98115.19
2022-09-27T00:54:06.388Z,98101.44
2022-09-27T00:56:35.084Z,98104.19
2022-09-27T00:59:08.189Z,98108.41
2022-09-27T01:01:37.519Z,98098.00
2022-09-27T01:04:09.468Z,98068.28
2022-09-27T01:06:39.567Z,98101.00
2022-09-27T01:09:09.072Z,98114.69
2022-09-27T01:11:44.167Z,98116.19
2022-09-27T01:14:30.080Z,98119.09
2022-09-27T01:17:07.716Z,98066.56
2022-09-27T01:20:18.855Z,98114.69
2022-09-27T01:23:03.517Z,98112.94
2022-09-27T01:25:52.097Z,98110.59
2022-09-27T01:28:33.088Z,98108.38
2022-09-27T01:31:08.699Z,98053.50
2022-09-27T01:33:47.746Z,97905.25
2022-09-27T01:36:25.252Z,98100.09
2022-09-27T01:39:02.181Z,98082.78
2022-09-27T01:41:46.535Z,98101.38
2022-09-27T01:44:38.769Z,98098.56
2022-09-27T01:47:18.110Z,98047.81
2022-09-27T01:49:57.487Z,98084.72
2022-09-27T01:52:33.143Z,98090.41
2022-09-27T01:55:03.726Z,97951.97
2022-09-27T01:57:51.886Z,98082.38
2022-09-27T02:00:25.426Z,98082.22
2022-09-27T02:03:01.713Z,98066.31
2022-09-27T02:05:42.921Z,98070.66
2022-09-27T02:08:35.299Z,98081.13
2022-09-27T02:11:12.044Z,98073.59
2022-09-27T02:13:49.490Z,98076.97
2022-09-27T02:16:49.724Z,98059.72
2022-09-27T02:19:32.418Z,98067.50
2022-09-27T02:22:09.144Z,98066.66
2022-09-27T02:24:42.766Z,98070.81
2022-09-27T02:27:15.347Z,98046.50
2022-09-27T02:29:51.709Z,97846.09
2022-09-27T02:32:20.007Z,98067.69
2022-09-27T02:34:52.465Z,98055.22
2022-09-27T02:37:20.465Z,98064.56
2022-09-27T02:39:49.086Z,98065.41
2022-09-27T02:42:17.267Z,98018.81
2022-09-27T02:44:45.981Z,98069.16
2022-09-27T02:47:47.113Z,98065.63
2022-09-27T02:50:43.380Z,98050.75
2022-09-27T02:53:39.957Z,98075.03
2022-09-27T02:56:32.904Z,98076.28
2022-09-27T02:59:36.381Z,98075.44
2022-09-27T03:02:23.241Z,98075.59
2022-09-27T03:05:28.413Z,98077.25
2022-09-27T03:07:56.561Z,98024.59
2022-09-27T03:10:27.147Z,98005.06
2022-09-27T03:12:55.874Z,98094.69
2022-09-27T03:15:23.978Z,98088.75
2022-09-27T03:18:01.086Z,98082.97
2022-09-27T03:21:03.292Z,98085.63
2022-09-27T03:23:31.320Z,98086.88
2022-09-27T03:25:59.580Z,98098.72
2022-09-27T03:28:29.766Z,98076.63
2022-09-27T03:30:58.387Z,98099.81
2022-09-27T03:33:47.255Z,98098.69
2022-09-27T03:36:16.890Z,98104.66
2022-09-27T03:38:45.011Z,98107.00
2022-09-27T03:41:17.433Z,98101.72
2022-09-27T03:43:45.722Z,98060.63
2022-09-27T03:46:13.884Z,97961.94
2022-09-27T03:48:42.727Z,98104.66
2022-09-27T03:51:12.686Z,98088.66
2022-09-27T03:53:42.929Z,98117.06
2022-09-27T03:56:11.654Z,98109.44
2022-09-27T03:58:40.143Z,98068.94
2022-09-27T04:01:09.167Z,98109.66
2022-09-27T04:03:38.758Z,97930.53
2022-09-27T04:06:07.041Z,98115.31
2022-09-27T04:08:40.875Z,98101.38
2022-09-27T04:11:08.879Z,98099.44
2022-09-27T04:13:37.151Z,98077.19
2022-09-27T04:16:05.680Z,98108.34
2022-09-27T04:18:33.618Z,98066.44
2022-09-27T04:21:20.618Z,98110.34
2022-09-27T04:23:54.376Z,98094.78
2022-09-27T04:26:26.211Z,98114.41
2022-09-27T04:29:05.030Z,98116.91
2022-09-27T04:31:39.405Z,98105.91
2022-09-27T04:34:45.586Z,98092.91
2022-09-27T04:37:15.642Z,98119.59
2022-09-27T04:39:51.728Z,98079.75
2022-09-27T04:42:20.532Z,98122.84
2022-09-27T04:44:48.898Z,98091.81
2022-09-27T04:47:17.484Z,98123.00
2022-09-27T04:49:45.475Z,98095.00
2022-09-27T04:52:15.624Z,98130.59
2022-09-27T04:54:43.776Z,98129.59
2022-09-27T04:57:14.659Z,98092.91
2022-09-27T04:59:44.326Z,98126.25
2022-09-27T05:02:13.881Z,98123.94
2022-09-27T05:05:01.882Z,98145.31
2022-09-27T05:07:36.556Z,98114.25
2022-09-27T05:10:10.892Z,98143.22
2022-09-27T05:12:40.308Z,98126.75
2022-09-27T05:15:10.145Z,98157.56
2022-09-27T05:18:13.015Z,98119.41
2022-09-27T05:20:59.801Z,98037.34
2022-09-27T05:23:34.016Z,98164.09
2022-09-27T05:26:05.070Z,98168.22
2022-09-27T05:28:35.245Z,98168.56
2022-09-27T05:31:03.868Z,98144.19
2022-09-27T05:33:34.423Z,98170.84
2022-09-27T05:36:33.400Z,98174.72
2022-09-27T05:39:01.400Z,98175.13
2022-09-27T05:41:32.805Z,98174.38
2022-09-27T05:44:02.732Z,98177.81
2022-09-27T05:46:30.922Z,98173.44
2022-09-27T05:48:59.436Z,98181.97
2022-09-27T05:51:27.359Z,98183.81
2022-09-27T05:53:55.549Z,98186.91
2022-09-27T05:56:28.623Z,98187.78
2022-09-27T05:59:30.213Z,98195.13
2022-09-27T06:02:18.430Z,98190.94
2022-09-27T06:05:19.799Z,98161.25
2022-09-27T06:08:21.085Z,98199.34
2022-09-27T06:10:52.929Z,98206.06
2022-09-27T06:13:21.071Z,98196.31
2022-09-27T06:15:51.537Z,98217.53
2022-09-27T06:18:19.509Z,98196.53
2022-09-27T06:20:50.506Z,98213.78
2022-09-27T06:23:20.070Z,98221.63
2022-09-27T06:25:50.624Z,98220.19
2022-09-27T06:28:51.249Z,98218.47
2022-09-27T06:31:21.857Z,98207.91
2022-09-27T06:34:09.310Z,98205.31
2022-09-27T06:36:37.313Z,98230.78
2022-09-27T06:39:05.709Z,98241.94
2022-09-27T06:41:41.843Z,98234.00
2022-09-27T06:44:36.026Z,98234.75
2022-09-27T06:47:38.575Z,98203.72
2022-09-27T06:50:18.487Z,98256.47
2022-09-27T06:52:50.536Z,98217.97
2022-09-27T06:55:19.774Z,98222.25
2022-09-27T06:58:05.216Z,98230.34
2022-09-27T07:00:33.747Z,98270.19
2022-09-27T07:03:18.894Z,98272.06
2022-09-27T07:06:06.855Z,98267.66
2022-09-27T07:08:53.229Z,98273.75
2022-09-27T07:11:23.754Z,98278.56
2022-09-27T07:13:53.491Z,98278.56
2022-09-27T07:16:21.781Z,98283.06
2022-09-27T07:18:51.445Z,98290.47
2022-09-27T07:21:19.766Z,98287.44
2022-09-27T07:23:48.615Z,98290.84
2022-09-27T07:26:17.349Z,98304.16
2022-09-27T07:28:46.009Z,98311.97
2022-09-27T07:31:17.754Z,98232.31
2022-09-27T07:33:46.715Z,98314.88
2022-09-27T07:36:16.323Z,98312.81
2022-09-27T07:38:47.532Z,98228.25
2022-09-27T07:41:18.542Z,98322.16
2022-09-27T07:43:46.586Z,98310.69
2022-09-27T07:46:16.208Z,98327.81
2022-09-27T07:48:55.362Z,98328.63
2022-09-27T07:51:43.524Z,98340.00
2022-09-27T07:54:27.896Z,98327.69
2022-09-27T07:57:15.127Z,98328.88
2022-09-27T07:59:50.059Z,98339.91
2022-09-27T08:02:21.652Z,98356.53
2022-09-27T08:04:51.532Z,98360.69
2022-09-27T08:07:21.610Z,98365.84
2022-09-27T08:09:53.329Z,98315.72
2022-09-27T08:12:22.545Z,98326.00
2022-09-27T08:14:51.229Z,98273.50
2022-09-27T08:17:20.223Z,98376.25
2022-09-27T08:20:08.921Z,98374.50
2022-09-27T08:22:49.639Z,98355.44
2022-09-27T08:25:44.223Z,98362.00
2022-09-27T08:28:29.156Z,98372.94
2022-09-27T08:31:07.179Z,98377.50
2022-09-27T08:33:41.064Z,98385.66
2022-09-27T08:36:12.683Z,98385.41
2022-09-27T08:38:43.188Z,98352.84
2022-09-27T08:41:17.929Z,98393.56
2022-09-27T08:43:55.197Z,98390.13
2022-09-27T08:46:32.866Z,98392.25
2022-09-27T08:49:08.630Z,98388.66
2022-09-27T08:51:38.451Z,98361.38
2022-09-27T08:54:12.933Z,98398.22
2022-09-27T08:56:41.335Z,98397.84
2022-09-27T08:59:15.391Z,98398.00
2022-09-27T09:01:44.772Z,98335.66
2022-09-27T09:04:27.576Z,98375.94
2022-09-27T09:07:04.108Z,98406.63
2022-09-27T09:09:45.845Z,98408.22
2022-09-27T09:12:49.912Z,98422.31
2022-09-27T09:15:31.992Z,98418.44
2022-09-27T09:18:34.841Z,98403.88
2022-09-27T09:21:24.942Z,98412.84
2022-09-27T09:24:11.052Z,98418.81
2022-09-27T09:26:46.953Z,98386.38
2022-09-27T09:29:30.428Z,98408.31
2022-09-27T09:32:09.112Z,98412.69
2022-09-27T09:34:41.153Z,98381.41
2022-09-27T09:37:17.182Z,98419.84
2022-09-27T09:39:48.215Z,98396.81
2022-09-27T09:42:26.598Z,98410.75
2022-09-27T09:45:00.703Z,98405.22
2022-09-27T09:47:37.304Z,98351.09
2022-09-27T09:50:18.690Z,98400.50
2022-09-27T09:52:52.561Z,98357.31
2022-09-27T09:55:24.697Z,98396.97
2022-09-27T09:58:16.528Z,98395.38
2022-09-27T10:00:51.721Z,98375.72
2022-09-27T10:03:20.355Z,98400.59
2022-09-27T10:05:48.942Z,98360.03
2022-09-27T10:08:21.277Z,98391.31
2022-09-27T10:10:56.252Z,98377.13
2022-09-27T10:13:47.943Z,98372.75
2022-09-27T10:16:19.665Z,98379.25
2022-09-27T10:18:50.981Z,98386.69
2022-09-27T10:21:23.453Z,98393.53
2022-09-27T10:24:10.453Z,98393.31
2022-09-27T10:27:00.967Z,98384.00
2022-09-27T10:29:37.845Z,98295.44
2022-09-27T10:32:23.509Z,98387.69
2022-09-27T10:34:58.287Z,98275.53
2022-09-27T10:37:26.310Z,98389.75
2022-09-27T10:40:26.918Z,98387.56
2022-09-27T10:42:56.029Z,98384.03
2022-09-27T10:45:32.544Z,98401.03
2022-09-27T10:48:07.846Z,98396.25
2022-09-27T10:50:59.139Z,98379.13
2022-09-27T10:53:50.109Z,98380.28
2022-09-27T10:56:33.872Z,98409.19
2022-09-27T10:59:04.096Z,98403.81
2022-09-27T11:01:46.024Z,98404.06
2022-09-27T11:04:24.453Z,98407.25
2022-09-27T11:06:53.016Z,98389.34
2022-09-27T11:09:26.986Z,98378.50
2022-09-27T11:12:12.150Z,98418.47
2022-09-27T11:14:41.586Z,98418.00
2022-09-27T11:17:17.687Z,98409.66
2022-09-27T11:20:18.150Z,98380.13
2022-09-27T11:23:15.841Z,98414.84
2022-09-27T11:25:53.208Z,98420.06
2022-09-27T11:28:31.708Z,98368.38
2022-09-27T11:31:10.671Z,98410.34
2022-09-27T11:34:04.499Z,98438.97
2022-09-27T11:36:54.601Z,98423.88
2022-09-27T11:39:30.855Z,98470.72
2022-09-27T11:42:23.681Z,98355.34
2022-09-27T11:48:24.496Z,98458.75
2022-09-27T11:51:09.465Z,98453.38
2022-09-27T11:53:51.340Z,98388.44
2022-09-27T11:56:35.842Z,98428.00
2022-09-27T11:59:24.919Z,98445.91
2022-09-27T12:02:02.058Z,98448.47
2022-09-27T12:05:01.801Z,98442.56
2022-09-27T12:07:44.704Z,98356.00
2022-09-27T12:10:16.917Z,98434.09
2022-09-27T12:12:47.818Z,98442.44
2022-09-27T12:15:20.320Z,98440.94
2022-09-27T12:17:52.223Z,98394.78
2022-09-27T12:20:23.444Z,98393.03
2022-09-27T12:23:00.042Z,98435.13
2022-09-27T12:25:53.417Z,98408.25
2022-09-27T12:28:37.116Z,98424.56
2022-09-27T12:31:29.050Z,98321.28
2022-09-27T12:34:16.213Z,98403.97
2022-09-27T12:36:52.574Z,98372.69
2022-09-27T12:39:26.909Z,98427.94
2022-09-27T12:42:14.400Z,98378.75
2022-09-27T12:44:50.567Z,98425.44
2022-09-27T12:47:42.528Z,98339.91
2022-09-27T12:50:26.046Z,98424.13
2022-09-27T12:52:59.439Z,98428.03
2022-09-27T12:56:10.839Z,98428.25
2022-09-27T12:59:04.352Z,98361.84
2022-09-27T13:01:47.915Z,98426.41
2022-09-27T13:04:38.310Z,98411.91
2022-09-27T13:07:31.360Z,98425.50
2022-09-27T13:10:11.445Z,98427.50
2022-09-27T13:12:49.448Z,98420.22
2022-09-27T13:15:22.535Z,98350.00
2022-09-27T13:17:53.332Z,98424.22
2022-09-27T13:20:48.279Z,98418.00
2022-09-27T13:24:02.116Z,98439.03
2022-09-27T13:26:51.148Z,98436.03
2022-09-27T13:29:34.639Z,98438.25
2022-09-27T13:32:28.285Z,98437.28
2022-09-27T13:35:14.065Z,98441.00
2022-09-27T13:37:50.757Z,98438.00
2022-09-27T13:40:31.632Z,98436.94
2022-09-27T13:43:48.217Z,98435.78
2022-09-27T13:46:28.004Z,98445.78
2022-09-27T13:49:00.443Z,98443.34
2022-09-27T13:51:48.013Z,98440.66
2022-09-27T13:54:50.711Z,98439.94
2022-09-27T13:57:45.361Z,98442.69
2022-09-27T14:00:23.879Z,98410.44
2022-09-27T14:03:06.665Z,98415.44
2022-09-27T14:05:42.691Z,98432.19
2022-09-27T14:08:24.976Z,98407.94
2022-09-27T14:10:53.971Z,98451.00
2022-09-27T14:13:25.519Z,98449.22
2022-09-27T14:16:05.516Z,98445.28
2022-09-27T14:18:48.060Z,98422.56
2022-09-27T14:21:29.789Z,98438.63
2022-09-27T14:24:30.620Z,98435.69
2022-09-27T14:27:13.833Z,98408.56
2022-09-27T14:29:44.942Z,98435.31
2022-09-27T14:32:17.609Z,98432.88
2022-09-27T14:35:33.039Z,98439.72
2022-09-27T14:38:15.730Z,98454.00
2022-09-27T14:40:59.617Z,98380.16
2022-09-27T14:43:29.278Z,98444.63
2022-09-27T14:46:01.074Z,98440.81
2022-09-27T14:48:32.302Z,98402.44
2022-09-27T14:51:06.151Z,98424.69
2022-09-27T14:53:37.326Z,98457.50
2022-09-27T14:56:08.290Z,98458.75
2022-09-27T14:58:47.579Z,98443.69
2022-09-27T15:01:17.711Z,98408.41
2022-09-27T15:03:47.053Z,98473.09
2022-09-27T15:06:17.022Z,98478.00
2022-09-27T15:08:49.224Z,98478.28
2022-09-27T15:11:19.261Z,98455.09
2022-09-27T15:13:51.708Z,98444.13
2022-09-27T15:16:23.116Z,98470.63
2022-09-27T15:19:01.335Z,98389.31
2022-09-27T15:21:33.998Z,98472.25
2022-09-27T15:24:02.803Z,98466.63
2022-09-27T15:26:38.878Z,98467.69
2022-09-27T15:29:07.840Z,98432.53
2022-09-27T15:31:37.691Z,98441.91
2022-09-27T15:34:06.990Z,98452.28
2022-09-27T15:37:05.043Z,98459.41
2022-09-27T15:39:35.086Z,98466.25
2022-09-27T15:42:08.943Z,98461.59
2022-09-27T15:44:45.937Z,98433.34
2022-09-27T15:47:40.291Z,98466.56
2022-09-27T15:50:34.507Z,98475.72
2022-09-27T15:53:06.890Z,98474.84
2022-09-27T15:55:37.834Z,98406.81
2022-09-27T15:58:08.141Z,98488.41
2022-09-27T16:00:37.164Z,98485.09
2022-09-27T16:03:05.429Z,98388.56
2022-09-27T16:05:33.249Z,98485.31
2022-09-27T16:08:01.426Z,98490.78
2022-09-27T16:10:39.885Z,98482.22
2022-09-27T16:13:07.882Z,98489.69
2022-09-27T16:15:36.038Z,98452.31
2022-09-27T16:18:04.108Z,98443.75
2022-09-27T16:20:33.240Z,98512.69
2022-09-27T16:23:01.048Z,98518.16
2022-09-27T16:25:29.077Z,98511.50
2022-09-27T16:28:00.865Z,98496.06
2022-09-27T16:30:30.049Z,98509.78
2022-09-27T16:32:58.804Z,98473.94
2022-09-27T16:35:29.226Z,98507.63
2022-09-27T16:37:58.377Z,98428.44
2022-09-27T16:40:28.165Z,98503.50
2022-09-27T16:42:56.228Z,98486.88
2022-09-27T16:45:34.307Z,98458.22
2022-09-27T16:48:02.671Z,98506.06
2022-09-27T16:50:47.948Z,98507.97
2022-09-27T16:53:15.975Z,98467.34
2022-09-27T16:55:44.058Z,98510.31
2022-09-27T16:58:12.162Z,98443.81
2022-09-27T17:00:42.092Z,98510.63
2022-09-27T17:03:10.284Z,98507.69
2022-09-27T17:05:38.269Z,98501.59
2022-09-27T17:08:06.293Z,98465.91
2022-09-27T17:10:35.758Z,98486.88
2022-09-27T17:13:03.867Z,98513.38
2022-09-27T17:15:31.766Z,98510.88
2022-09-27T17:18:01.162Z,98483.28
2022-09-27T17:20:29.134Z,98513.56
2022-09-27T17:22:57.159Z,98498.56
2022-09-27T17:25:25.231Z,98499.88
2022-09-27T17:27:53.263Z,98469.66
2022-09-27T17:30:21.209Z,98496.66
2022-09-27T17:32:49.002Z,98503.50
2022-09-27T17:35:18.263Z,98503.13
2022-09-27T17:37:46.235Z,98500.75
2022-09-27T17:40:16.212Z,98410.81
2022-09-27T17:42:44.191Z,98508.66
2022-09-27T17:45:12.268Z,98518.28
2022-09-27T17:47:57.704Z,98460.19
2022-09-27T17:50:28.474Z,98516.50
2022-09-27T17:52:58.820Z,98499.97
2022-09-27T17:55:27.134Z,98506.56
2022-09-27T17:57:55.141Z,98513.66
2022-09-27T18:00:23.081Z,98498.53
2022-09-27T18:02:51.241Z,98521.22
2022-09-27T18:05:21.191Z,98500.06
2022-09-27T18:07:50.588Z,98508.09
2022-09-27T18:10:18.882Z,98472.06
2022-09-27T18:12:46.849Z,98512.28
2022-09-27T18:15:16.983Z,98512.09
2022-09-27T18:17:46.019Z,98508.97
2022-09-27T18:20:13.860Z,98491.63
2022-09-27T18:22:41.875Z,98514.19
2022-09-27T18:25:12.179Z,98519.97
2022-09-27T18:27:40.392Z,98516.06
2022-09-27T18:30:09.650Z,98498.81
2022-09-27T18:32:37.527Z,98509.13
2022-09-27T18:35:06.906Z,98449.78
2022-09-27T18:37:34.866Z,98515.16
2022-09-27T18:40:03.014Z,98526.22
2022-09-27T18:42:32.387Z,98525.78
2022-09-27T18:45:00.295Z,98529.88
2022-09-27T18:47:28.291Z,98529.56
2022-09-27T18:49:56.192Z,98516.00
2022-09-27T18:52:24.180Z,98528.25
2022-09-27T18:54:52.068Z,98519.53
2022-09-27T18:57:20.175Z,98525.09
2022-09-27T18:59:49.647Z,98525.78
2022-09-27T19:02:17.598Z,98505.31
2022-09-27T19:04:45.546Z,98520.88
2022-09-27T19:07:13.470Z,98521.84
2022-09-27T19:09:41.271Z,98521.28
2022-09-27T19:12:09.059Z,98513.34
2022-09-27T19:14:36.959Z,98518.03
2022-09-27T19:17:06.224Z,98522.50
2022-09-27T19:19:34.120Z,98524.59
2022-09-27T19:22:02.435Z,98520.31
2022-09-27T19:24:30.302Z,98511.44
2022-09-27T19:26:58.075Z,98523.97
2022-09-27T19:29:26.547Z,98520.13
2022-09-27T19:31:54.550Z,98429.56
2022-09-27T19:34:23.870Z,98521.47
2022-09-27T19:36:51.746Z,98510.59
2022-09-27T19:39:19.586Z,98305.53
2022-09-27T19:41:47.508Z,98514.69
2022-09-27T19:44:15.521Z,98514.09
2022-09-27T19:46:45.465Z,98497.13
2022-09-27T19:49:13.344Z,98519.19
2022-09-27T19:51:42.652Z,98519.75
2022-09-27T19:54:11.072Z,98520.06
2022-09-27T19:56:39.087Z,98413.41
2022-09-27T19:59:07.462Z,98521.00
2022-09-27T20:01:35.622Z,98520.50
2022-09-27T20:04:03.844Z,98529.41
2022-09-27T20:06:32.668Z,98525.97
2022-09-27T20:09:03.553Z,98520.41
2022-09-27T20:11:33.305Z,98525.19
2022-09-27T20:14:01.511Z,98436.59
2022-09-27T20:16:29.416Z,98498.84
2022-09-27T20:18:58.734Z,98533.28
2022-09-27T20:21:28.932Z,98534.59
2022-09-27T20:23:58.276Z,98530.63
2022-09-27T20:26:29.204Z,98530.03
2022-09-27T20:28:58.785Z,98532.31
2022-09-27T20:31:28.484Z,98519.94
2022-09-27T20:33:57.070Z,98533.59
2022-09-27T20:36:26.672Z,98519.47
2022-09-27T20:39:01.178Z,98499.38
2022-09-27T20:41:33.668Z,98530.53
2022-09-27T20:44:04.485Z,98512.00
2022-09-27T20:46:33.230Z,98524.03
2022-09-27T20:49:03.006Z,98520.41
2022-09-27T20:51:33.297Z,98521.84
2022-09-27T20:54:01.396Z,98519.44
2022-09-27T20:56:32.912Z,98521.16
2022-09-27T20:59:04.196Z,98512.34
2022-09-27T21:01:33.085Z,98517.34
2022-09-27T21:04:03.462Z,98498.81
2022-09-27T21:06:31.893Z,98514.94
2022-09-27T21:09:01.543Z,98517.13
2022-09-27T21:11:29.387Z,98486.59
2022-09-27T21:13:58.634Z,98506.84
2022-09-27T21:16:28.823Z,98499.31
2022-09-27T21:18:58.766Z,98474.56
2022-09-27T21:21:27.376Z,98508.75
2022-09-27T21:23:57.415Z,98507.22
2022-09-27T21:26:26.884Z,98504.34
2022-09-27T21:28:56.512Z,98507.41
2022-09-27T21:31:27.658Z,98495.19
2022-09-27T21:33:59.014Z,98402.25
2022-09-27T21:36:29.088Z,98503.03
2022-09-27T21:38:57.960Z,98497.06
2022-09-27T21:41:26.661Z,98491.16
2022-09-27T21:43:55.110Z,98500.44
2022-09-27T21:46:26.465Z,98461.16
2022-09-27T21:48:57.066Z,98466.63
2022-09-27T21:51:27.261Z,98501.44
2022-09-27T21:53:57.269Z,98504.50
2022-09-27T21:56:29.260Z,98483.41
2022-09-27T21:58:57.156Z,98490.72
2022-09-27T22:01:29.461Z,98492.00
2022-09-27T22:03:59.311Z,98495.13
2022-09-27T22:06:28.747Z,98491.09
2022-09-27T22:08:57.924Z,98462.72
2022-09-27T22:11:27.661Z,98484.72
2022-09-27T22:13:55.666Z,98481.19
2022-09-27T22:16:24.312Z,98485.53
2022-09-27T22:18:56.249Z,98486.59
2022-09-27T22:21:27.503Z,98463.09
2022-09-27T22:23:56.224Z,98447.41
2022-09-27T22:26:26.594Z,98483.09
2022-09-27T22:28:54.641Z,98480.59
2022-09-27T22:31:23.326Z,98478.13
2022-09-27T22:33:54.473Z,98467.13
2022-09-27T22:36:22.980Z,98478.97
2022-09-27T22:38:51.482Z,98474.75
2022-09-27T22:41:20.277Z,98469.53
2022-09-27T22:43:48.390Z,98462.38
2022-09-27T22:46:16.710Z,98466.59
2022-09-27T22:48:44.952Z,98462.31
2022-09-27T22:51:14.378Z,98462.59
2022-09-27T22:53:42.359Z,98452.97
2022-09-27T22:56:14.797Z,98448.59
2022-09-27T22:58:44.183Z,98419.31
2022-09-27T23:01:14.817Z,98437.25
2022-09-27T23:03:43.316Z,98425.13
2022-09-27T23:06:11.894Z,98432.59
2022-09-27T23:08:41.520Z,98429.91
2022-09-27T23:11:11.423Z,98401.38
2022-09-27T23:13:41.763Z,98427.63
2022-09-27T23:16:10.446Z,98423.22
2022-09-27T23:18:38.954Z,98422.63
2022-09-27T23:21:08.831Z,98400.56
2022-09-27T23:23:38.218Z,98419.91
2022-09-27T23:26:09.850Z,98414.41
2022-09-27T23:28:37.962Z,98404.84
2022-09-27T23:31:08.386Z,98407.25
2022-09-27T23:33:36.974Z,98412.09
2022-09-27T23:36:05.585Z,98393.59
2022-09-27T23:38:34.081Z,98400.69
2022-09-27T23:41:02.097Z,98404.84
2022-09-27T23:43:31.454Z,98404.53
2022-09-27T23:45:59.297Z,98401.88
2022-09-27T23:48:27.192Z,98313.75
2022-09-27T23:50:55.412Z,98390.84
2022-09-27T23:53:24.152Z,98408.09
2022-09-27T23:56:02.170Z,98393.50
2022-09-27T23:58:33.852Z,98406.75
